Kitanomaru — JD2835 — position and weather

sailwx.info

Track history (hours):
 
Tides and Currents Weather Stations Pressure Air Temp Water Temp Dewpoint Dewpoint Depression Visibility Wind Speed Wind Dir Waves Ship Positions

Kitanomaru

Last reported at 2016-May-27 21:33 UTC. Time now 2016-May-27 22:07 UTC.
Position N 35°36' E 140°06'.

Length 39 m; draft 4 m.

Type: Tug. MMSI: 431000773.

Date/timePositionNaut miles runAvg speedWind from/ knotsBaromVisibWave heightAir tempDewpointWater temp
2016-May-27 21:33N 35°36' E 140°06'0 0.0
2016-May-27 20:34N 35°36' E 140°06'0 0.0
2016-May-27 19:34N 35°36' E 140°06'0 0.0
2016-May-27 18:34N 35°36' E 140°06'0 0.0
2016-May-27 17:34N 35°36' E 140°06'0 0.0
2016-May-27 16:33N 35°36' E 140°06'0 0.0
2016-May-27 15:33N 35°36' E 140°06'0 0.0
2016-May-27 14:33N 35°36' E 140°06'0 0.0
2016-May-27 13:34N 35°36' E 140°06'0 0.0
2016-May-27 12:34N 35°36' E 140°06'0 0.0
2016-May-27 11:34N 35°36' E 140°06'0 0.0
2016-May-27 10:33N 35°36' E 140°06'0 0.0
2016-May-27 09:34N 35°36' E 140°06'0 0.0
2016-May-27 08:34N 35°36' E 140°06'0 0.0
2016-May-27 07:34N 35°36' E 140°06'0 0.0
2016-May-27 06:33N 35°36' E 140°06'0 0.0
2016-May-27 05:33N 35°36' E 140°06'0 0.0
2016-May-27 04:34N 35°36' E 140°06'0 0.0
2016-May-27 03:34N 35°36' E 140°06'2 1.9
2016-May-27 02:33N 35°35' E 140°04'0 0.0
2016-May-27 01:33N 35°35' E 140°04'0 0.0
2016-May-27 00:33N 35°35' E 140°04'0 0.0
2016-May-26 23:33N 35°35' E 140°04'1 1.3
2016-May-26 22:33N 35°36' E 140°05'0 0.4
2016-May-26 21:33N 35°36' E 140°05'1 0.9
2016-May-26 20:33N 35°36' E 140°06'0 0.0
2016-May-26 19:33N 35°36' E 140°06'0 0.0
2016-May-26 18:33N 35°36' E 140°06'0 0.0
2016-May-26 17:34N 35°36' E 140°06'0 0.0
2016-May-26 16:33N 35°36' E 140°06'0 0.0
2016-May-26 15:33N 35°36' E 140°06'0 0.0
2016-May-26 14:33N 35°36' E 140°06'0 0.0
2016-May-26 13:33N 35°36' E 140°06'0 0.0
2016-May-26 12:34N 35°36' E 140°06'0 0.0
2016-May-26 11:33N 35°36' E 140°06'0 0.0
2016-May-26 10:34N 35°36' E 140°06'6 6.2
2016-May-26 09:33N 35°33' E 139°60'4 3.6
2016-May-26 08:34N 35°31' E 139°56'6 6.1
2016-May-26 07:33N 35°34' E 140°02'3 3.2
2016-May-26 06:33N 35°35' E 140°06'2 1.6
2016-May-26 05:33N 35°35' E 140°04'0 0.0
2016-May-26 04:33N 35°35' E 140°04'0 0.0
2016-May-26 03:33N 35°35' E 140°04'0 0.0
2016-May-26 02:33N 35°35' E 140°04'0 0.0
2016-May-26 01:33N 35°35' E 140°04'2 2.1
2016-May-26 00:33N 35°36' E 140°07'0 0.0
2016-May-25 23:33N 35°36' E 140°07'1 1.1
2016-May-25 22:33N 35°35' E 140°06'2 2.2
2016-May-25 21:33N 35°35' E 140°03'0 0.0
2016-May-25 20:33N 35°35' E 140°03'3 3.0
2016-May-25 19:33N 35°36' E 140°06'0 0.0
2016-May-25 18:33N 35°36' E 140°06'0 0.0
2016-May-25 17:33N 35°36' E 140°06'0 0.0
2016-May-25 16:33N 35°36' E 140°06'0 0.0
2016-May-25 15:33N 35°36' E 140°06'0 0.0
2016-May-25 14:33N 35°36' E 140°06'0 0.0
2016-May-25 13:34N 35°36' E 140°06'0 0.0
2016-May-25 12:34N 35°36' E 140°06'0 0.0
2016-May-25 11:33N 35°36' E 140°06'0 0.0
2016-May-25 10:33N 35°36' E 140°06'0 0.0
2016-May-25 09:34N 35°36' E 140°06'0 0.0
2016-May-25 08:33N 35°36' E 140°06'0 0.0
2016-May-25 05:33N 35°36' E 140°06'0 0.0
2016-May-25 04:33N 35°36' E 140°06'0 0.0
2016-May-25 03:34N 35°36' E 140°06'0 0.0
2016-May-25 02:34N 35°36' E 140°06'0 0.0
2016-May-25 01:33N 35°36' E 140°06'0 0.0
2016-May-25 00:33N 35°36' E 140°06'0 0.0
2016-May-24 23:33N 35°36' E 140°06'0 0.0
2016-May-24 22:33N 35°36' E 140°06'0 0.0
2016-May-24 21:34N 35°36' E 140°06'0 0.0
2016-May-24 20:33N 35°36' E 140°06'0 0.0
2016-May-24 19:33N 35°36' E 140°06'0 0.0
2016-May-24 18:33N 35°36' E 140°06'0 0.0
2016-May-24 17:33N 35°36' E 140°06'0 0.0
2016-May-24 16:34N 35°36' E 140°06'0 0.0
2016-May-24 15:33N 35°36' E 140°06'0 0.0
2016-May-24 14:33N 35°36' E 140°06'0 0.0
2016-May-24 13:33N 35°36' E 140°06'0 0.0
2016-May-24 12:33N 35°36' E 140°06'0 0.0
2016-May-24 11:33N 35°36' E 140°06'0 0.0
2016-May-24 10:33N 35°36' E 140°06'0 0.0
2016-May-24 09:34N 35°36' E 140°06'9 8.7
2016-May-24 08:34N 35°31' E 139°57'1 1.2
2016-May-24 07:33N 35°31' E 139°56'0 0.3
2016-May-24 06:33N 35°31' E 139°56'2 2.3
2016-May-24 05:34N 35°30' E 139°53'1 1.2
2016-May-24 04:33N 35°29' E 139°54'0 0.0
2016-May-24 03:33N 35°29' E 139°54'3 3.1
2016-May-24 02:33N 35°28' E 139°58'0 0.3
2016-May-24 01:33N 35°29' E 139°58'0 0.0
2016-May-24 00:33N 35°29' E 139°59'3 2.6
2016-May-23 23:33N 35°30' E 140°01'1 0.6
2016-May-23 22:33N 35°30' E 140°01'2 2.0
2016-May-23 21:32N 35°32' E 140°03'1 0.7
2016-May-23 20:33N 35°32' E 140°03'5 4.8
2016-May-23 19:33N 35°36' E 140°06'0 0.0
2016-May-23 18:33N 35°36' E 140°06'0 0.0
2016-May-23 17:33N 35°36' E 140°06'0 0.0
2016-May-23 16:33N 35°36' E 140°06'0 0.0
2016-May-23 15:33N 35°36' E 140°06'0 0.0
2016-May-23 14:33N 35°36' E 140°06'0 0.0
2016-May-23 13:33N 35°36' E 140°06'0 0.0
2016-May-23 12:33N 35°36' E 140°06'0 0.0
2016-May-23 11:33N 35°36' E 140°06'0 0.0
2016-May-23 10:33N 35°36' E 140°06'0 0.0
2016-May-23 09:33N 35°36' E 140°06'0 0.0
2016-May-23 08:33N 35°36' E 140°06'1 0.8
2016-May-23 07:34N 35°36' E 140°06'7 6.6
2016-May-23 06:33N 35°30' E 140°01'0 0.1
2016-May-23 05:33N 35°30' E 140°01'1 1.2
2016-May-23 04:33N 35°31' E 140°01'0 0.0
2016-May-23 03:33N 35°31' E 140°01'0 0.0
2016-May-23 02:33N 35°31' E 140°01'6 6.1
2016-May-23 01:33N 35°35' E 140°06'1 0.6
2016-May-23 00:33N 35°35' E 140°06'2 2.0
2016-May-22 23:33N 35°35' E 140°04'0 0.0
2016-May-22 22:33N 35°35' E 140°04'2 2.3
2016-May-22 21:33N 35°36' E 140°06'0 0.0
2016-May-22 20:33N 35°36' E 140°06'0 0.0
2016-May-22 19:33N 35°36' E 140°06'0 0.0
2016-May-22 18:33N 35°36' E 140°06'0 0.0
2016-May-22 17:33N 35°36' E 140°06'0 0.0
2016-May-22 16:33N 35°36' E 140°06'0 0.0
2016-May-22 15:33N 35°36' E 140°06'0 0.0
2016-May-22 14:33N 35°36' E 140°06'0 0.0
2016-May-22 13:33N 35°36' E 140°06'0 0.0
2016-May-22 12:33N 35°36' E 140°06'0 0.0
2016-May-22 11:33N 35°36' E 140°06'0 0.0
2016-May-22 10:33N 35°36' E 140°06'0 0.0
2016-May-22 09:33N 35°36' E 140°06'0 0.0
2016-May-22 08:33N 35°36' E 140°06'0 0.0
2016-May-22 07:33N 35°36' E 140°06'7 6.7
2016-May-22 06:33N 35°31' E 140°00'4 4.1
2016-May-22 05:33N 35°28' E 139°58'1 1.0
2016-May-22 04:33N 35°29' E 139°57'0 0.0
2016-May-22 03:33N 35°29' E 139°57'0 0.0
2016-May-22 02:33N 35°29' E 139°57'0 0.0
2016-May-22 01:33N 35°29' E 139°57'0 0.0
2016-May-22 00:33N 35°29' E 139°57'1 1.2
2016-May-21 23:33N 35°28' E 139°58'6 6.0
2016-May-21 22:32N 35°33' E 140°02'5 4.7
2016-May-21 21:33N 35°36' E 140°06'0 0.0
2016-May-21 20:33N 35°36' E 140°06'0 0.0
2016-May-21 19:33N 35°36' E 140°06'0 0.0
2016-May-21 18:33N 35°36' E 140°06'0 0.0
2016-May-21 17:33N 35°36' E 140°06'0 0.0
2016-May-21 16:33N 35°36' E 140°06'0 0.0
2016-May-21 15:33N 35°36' E 140°06'0 0.0
2016-May-21 14:33N 35°36' E 140°06'0 0.0
2016-May-21 13:33N 35°36' E 140°06'0 0.0
2016-May-21 12:33N 35°36' E 140°06'0 0.0
2016-May-21 11:33N 35°36' E 140°06'0 0.0
2016-May-21 10:33N 35°36' E 140°06'0 0.0
2016-May-21 09:34N 35°36' E 140°06'4 4.1
2016-May-21 08:33N 35°33' E 140°03'2 2.1
2016-May-21 07:33N 35°31' E 140°02'1 0.6
2016-May-21 06:33N 35°31' E 140°02'0 0.0
2016-May-21 05:33N 35°31' E 140°02'2 2.1
2016-May-21 04:34N 35°29' E 140°00'4 4.4
2016-May-21 03:33N 35°33' E 140°03'4 4.2
2016-May-21 02:33N 35°36' E 140°06'0 0.0
2016-May-21 01:33N 35°36' E 140°06'0 0.0
2016-May-21 00:33N 35°36' E 140°06'0 0.0
2016-May-20 23:33N 35°36' E 140°06'0 0.0
2016-May-20 22:33N 35°36' E 140°06'0 0.0
2016-May-20 21:33N 35°36' E 140°06'0 0.0
2016-May-20 20:33N 35°36' E 140°06'0 0.0
2016-May-20 19:33N 35°36' E 140°06'0 0.0
2016-May-20 18:33N 35°36' E 140°06'0 0.0
2016-May-20 17:33N 35°36' E 140°06'0 0.0
2016-May-20 16:33N 35°36' E 140°06'0 0.0
2016-May-20 15:33N 35°36' E 140°06'0 0.0
2016-May-20 14:33N 35°36' E 140°06'0 0.0
2016-May-20 13:33N 35°36' E 140°06'0 0.0
2016-May-20 12:33N 35°36' E 140°06'0 0.0
2016-May-20 11:33N 35°36' E 140°06'0 0.0
2016-May-20 10:33N 35°36' E 140°06'0 0.0
2016-May-20 09:33N 35°36' E 140°06'0 0.0
2016-May-20 08:33N 35°36' E 140°06'0 0.0
2016-May-20 07:33N 35°36' E 140°06'1 1.0
2016-May-20 06:33N 35°36' E 140°05'2 1.5
2016-May-20 05:33N 35°36' E 140°07'0 0.0
2016-May-20 04:33N 35°36' E 140°07'0 0.0
2016-May-20 03:33N 35°36' E 140°07'4 4.4
2016-May-20 02:33N 35°33' E 140°03'2 1.8
2016-May-20 01:33N 35°31' E 140°02'2 1.5
2016-May-20 00:32N 35°31' E 140°00'1 0.6
2016-May-19 23:33N 35°31' E 140°01'6 6.5
2016-May-19 22:34N 35°36' E 140°06'0 0.0
2016-May-19 21:33N 35°36' E 140°06'0 0.0
2016-May-19 20:33N 35°36' E 140°06'0 0.0
2016-May-19 19:33N 35°36' E 140°06'0 0.0
2016-May-19 18:34N 35°36' E 140°06'0 0.0
2016-May-19 17:33N 35°36' E 140°06'0 0.0
2016-May-19 16:33N 35°36' E 140°06'0 0.0
2016-May-19 15:33N 35°36' E 140°06'0 0.0
2016-May-19 14:34N 35°36' E 140°06'0 0.0
2016-May-19 13:33N 35°36' E 140°06'0 0.0
2016-May-19 12:33N 35°36' E 140°06'0 0.0
2016-May-19 11:33N 35°36' E 140°06'0 0.0
2016-May-19 10:33N 35°36' E 140°06'0 0.0
2016-May-19 09:33N 35°36' E 140°06'0 0.0
2016-May-19 08:33N 35°36' E 140°06'0 0.0
2016-May-19 07:33N 35°36' E 140°06'1 0.8
2016-May-19 06:33N 35°36' E 140°05'1 1.5
2016-May-19 05:33N 35°35' E 140°04'0 0.0
2016-May-19 04:33N 35°35' E 140°04'7 7.5
2016-May-19 03:33N 35°29' E 139°59'1 0.9
2016-May-19 02:33N 35°28' E 139°58'0 0.5
2016-May-19 01:33N 35°29' E 139°58'1 0.7
2016-May-19 00:33N 35°29' E 139°57'9 9.0
2016-May-18 23:33N 35°35' E 140°05'0 0.2
2016-May-18 22:33N 35°36' E 140°06'1 0.9
2016-May-18 21:33N 35°35' E 140°05'0 0.0
2016-May-18 20:32N 35°35' E 140°05'2 1.8
2016-May-18 19:33N 35°36' E 140°06'0 0.0
2016-May-18 18:33N 35°36' E 140°06'0 0.0
2016-May-18 17:33N 35°36' E 140°06'0 0.0
2016-May-18 16:33N 35°36' E 140°06'0 0.0
2016-May-18 15:33N 35°36' E 140°06'0 0.0
2016-May-18 14:33N 35°36' E 140°06'0 0.0
2016-May-18 13:33N 35°36' E 140°06'0 0.0
2016-May-18 12:33N 35°36' E 140°06'0 0.0
2016-May-18 11:33N 35°36' E 140°06'0 0.0
2016-May-18 10:33N 35°36' E 140°06'0 0.0
2016-May-18 09:33N 35°36' E 140°06'5 4.6
2016-May-18 08:33N 35°33' E 140°02'7 6.8
2016-May-18 07:33N 35°27' E 139°58'1 1.3
2016-May-18 06:33N 35°28' E 139°57'0 0.0
2016-May-18 05:33N 35°28' E 139°57'1 0.6
2016-May-18 04:33N 35°29' E 139°57'4 4.5
2016-May-18 03:33N 35°31' E 140°02'0 0.3
2016-May-18 02:32N 35°31' E 140°02'6 5.9
2016-May-18 01:33N 35°36' E 140°06'0 0.0
2016-May-18 00:33N 35°36' E 140°06'0 0.0
2016-May-17 23:33N 35°36' E 140°06'0 0.0
2016-May-17 22:33N 35°36' E 140°06'  
Track history (hours):
 
Tides and Currents Weather Stations Pressure Air Temp Water Temp Dewpoint Dewpoint Depression Visibility Wind Speed Wind Dir Waves Ship Positions

Kitanomaru

Last reported at 2016-May-27 21:33 UTC. Time now 2016-May-27 22:07 UTC.
Position N 35°36' E 140°06'.

Length 39 m; draft 4 m.

Type: Tug. MMSI: 431000773.

Date/timePositionNaut miles runAvg speedWind from/ knotsBaromVisibWave heightAir tempDewpointWater temp
2016-May-27 21:33N 35°36' E 140°06'0 0.0
2016-May-27 20:34N 35°36' E 140°06'0 0.0
2016-May-27 19:34N 35°36' E 140°06'0 0.0
2016-May-27 18:34N 35°36' E 140°06'0 0.0
2016-May-27 17:34N 35°36' E 140°06'0 0.0
2016-May-27 16:33N 35°36' E 140°06'0 0.0
2016-May-27 15:33N 35°36' E 140°06'0 0.0
2016-May-27 14:33N 35°36' E 140°06'0 0.0
2016-May-27 13:34N 35°36' E 140°06'0 0.0
2016-May-27 12:34N 35°36' E 140°06'0 0.0
2016-May-27 11:34N 35°36' E 140°06'0 0.0
2016-May-27 10:33N 35°36' E 140°06'0 0.0
2016-May-27 09:34N 35°36' E 140°06'0 0.0
2016-May-27 08:34N 35°36' E 140°06'0 0.0
2016-May-27 07:34N 35°36' E 140°06'0 0.0
2016-May-27 06:33N 35°36' E 140°06'0 0.0
2016-May-27 05:33N 35°36' E 140°06'0 0.0
2016-May-27 04:34N 35°36' E 140°06'0 0.0
2016-May-27 03:34N 35°36' E 140°06'2 1.9
2016-May-27 02:33N 35°35' E 140°04'0 0.0
2016-May-27 01:33N 35°35' E 140°04'0 0.0
2016-May-27 00:33N 35°35' E 140°04'0 0.0
2016-May-26 23:33N 35°35' E 140°04'1 1.3
2016-May-26 22:33N 35°36' E 140°05'0 0.4
2016-May-26 21:33N 35°36' E 140°05'1 0.9
2016-May-26 20:33N 35°36' E 140°06'0 0.0
2016-May-26 19:33N 35°36' E 140°06'0 0.0
2016-May-26 18:33N 35°36' E 140°06'0 0.0
2016-May-26 17:34N 35°36' E 140°06'0 0.0
2016-May-26 16:33N 35°36' E 140°06'0 0.0
2016-May-26 15:33N 35°36' E 140°06'0 0.0
2016-May-26 14:33N 35°36' E 140°06'0 0.0
2016-May-26 13:33N 35°36' E 140°06'0 0.0
2016-May-26 12:34N 35°36' E 140°06'0 0.0
2016-May-26 11:33N 35°36' E 140°06'0 0.0
2016-May-26 10:34N 35°36' E 140°06'6 6.2
2016-May-26 09:33N 35°33' E 139°60'4 3.6
2016-May-26 08:34N 35°31' E 139°56'6 6.1
2016-May-26 07:33N 35°34' E 140°02'3 3.2
2016-May-26 06:33N 35°35' E 140°06'2 1.6
2016-May-26 05:33N 35°35' E 140°04'0 0.0
2016-May-26 04:33N 35°35' E 140°04'0 0.0
2016-May-26 03:33N 35°35' E 140°04'0 0.0
2016-May-26 02:33N 35°35' E 140°04'0 0.0
2016-May-26 01:33N 35°35' E 140°04'2 2.1
2016-May-26 00:33N 35°36' E 140°07'0 0.0
2016-May-25 23:33N 35°36' E 140°07'1 1.1
2016-May-25 22:33N 35°35' E 140°06'2 2.2
2016-May-25 21:33N 35°35' E 140°03'0 0.0
2016-May-25 20:33N 35°35' E 140°03'3 3.0
2016-May-25 19:33N 35°36' E 140°06'0 0.0
2016-May-25 18:33N 35°36' E 140°06'0 0.0
2016-May-25 17:33N 35°36' E 140°06'0 0.0
2016-May-25 16:33N 35°36' E 140°06'0 0.0
2016-May-25 15:33N 35°36' E 140°06'0 0.0
2016-May-25 14:33N 35°36' E 140°06'0 0.0
2016-May-25 13:34N 35°36' E 140°06'0 0.0
2016-May-25 12:34N 35°36' E 140°06'0 0.0
2016-May-25 11:33N 35°36' E 140°06'0 0.0
2016-May-25 10:33N 35°36' E 140°06'0 0.0
2016-May-25 09:34N 35°36' E 140°06'0 0.0
2016-May-25 08:33N 35°36' E 140°06'0 0.0
2016-May-25 05:33N 35°36' E 140°06'0 0.0
2016-May-25 04:33N 35°36' E 140°06'0 0.0
2016-May-25 03:34N 35°36' E 140°06'0 0.0
2016-May-25 02:34N 35°36' E 140°06'0 0.0
2016-May-25 01:33N 35°36' E 140°06'0 0.0
2016-May-25 00:33N 35°36' E 140°06'0 0.0
2016-May-24 23:33N 35°36' E 140°06'0 0.0
2016-May-24 22:33N 35°36' E 140°06'0 0.0
2016-May-24 21:34N 35°36' E 140°06'0 0.0
2016-May-24 20:33N 35°36' E 140°06'0 0.0
2016-May-24 19:33N 35°36' E 140°06'0 0.0
2016-May-24 18:33N 35°36' E 140°06'0 0.0
2016-May-24 17:33N 35°36' E 140°06'0 0.0
2016-May-24 16:34N 35°36' E 140°06'0 0.0
2016-May-24 15:33N 35°36' E 140°06'0 0.0
2016-May-24 14:33N 35°36' E 140°06'0 0.0
2016-May-24 13:33N 35°36' E 140°06'0 0.0
2016-May-24 12:33N 35°36' E 140°06'0 0.0
2016-May-24 11:33N 35°36' E 140°06'0 0.0
2016-May-24 10:33N 35°36' E 140°06'0 0.0
2016-May-24 09:34N 35°36' E 140°06'9 8.7
2016-May-24 08:34N 35°31' E 139°57'1 1.2
2016-May-24 07:33N 35°31' E 139°56'0 0.3
2016-May-24 06:33N 35°31' E 139°56'2 2.3
2016-May-24 05:34N 35°30' E 139°53'1 1.2
2016-May-24 04:33N 35°29' E 139°54'0 0.0
2016-May-24 03:33N 35°29' E 139°54'3 3.1
2016-May-24 02:33N 35°28' E 139°58'0 0.3
2016-May-24 01:33N 35°29' E 139°58'0 0.0
2016-May-24 00:33N 35°29' E 139°59'3 2.6
2016-May-23 23:33N 35°30' E 140°01'1 0.6
2016-May-23 22:33N 35°30' E 140°01'2 2.0
2016-May-23 21:32N 35°32' E 140°03'1 0.7
2016-May-23 20:33N 35°32' E 140°03'5 4.8
2016-May-23 19:33N 35°36' E 140°06'0 0.0
2016-May-23 18:33N 35°36' E 140°06'0 0.0
2016-May-23 17:33N 35°36' E 140°06'0 0.0
2016-May-23 16:33N 35°36' E 140°06'0 0.0
2016-May-23 15:33N 35°36' E 140°06'0 0.0
2016-May-23 14:33N 35°36' E 140°06'0 0.0
2016-May-23 13:33N 35°36' E 140°06'0 0.0
2016-May-23 12:33N 35°36' E 140°06'0 0.0
2016-May-23 11:33N 35°36' E 140°06'0 0.0
2016-May-23 10:33N 35°36' E 140°06'0 0.0
2016-May-23 09:33N 35°36' E 140°06'0 0.0
2016-May-23 08:33N 35°36' E 140°06'1 0.8
2016-May-23 07:34N 35°36' E 140°06'7 6.6
2016-May-23 06:33N 35°30' E 140°01'0 0.1
2016-May-23 05:33N 35°30' E 140°01'1 1.2
2016-May-23 04:33N 35°31' E 140°01'0 0.0
2016-May-23 03:33N 35°31' E 140°01'0 0.0
2016-May-23 02:33N 35°31' E 140°01'6 6.1
2016-May-23 01:33N 35°35' E 140°06'1 0.6
2016-May-23 00:33N 35°35' E 140°06'2 2.0
2016-May-22 23:33N 35°35' E 140°04'0 0.0
2016-May-22 22:33N 35°35' E 140°04'2 2.3
2016-May-22 21:33N 35°36' E 140°06'0 0.0
2016-May-22 20:33N 35°36' E 140°06'0 0.0
2016-May-22 19:33N 35°36' E 140°06'0 0.0
2016-May-22 18:33N 35°36' E 140°06'0 0.0
2016-May-22 17:33N 35°36' E 140°06'0 0.0
2016-May-22 16:33N 35°36' E 140°06'0 0.0
2016-May-22 15:33N 35°36' E 140°06'0 0.0
2016-May-22 14:33N 35°36' E 140°06'0 0.0
2016-May-22 13:33N 35°36' E 140°06'0 0.0
2016-May-22 12:33N 35°36' E 140°06'0 0.0
2016-May-22 11:33N 35°36' E 140°06'0 0.0
2016-May-22 10:33N 35°36' E 140°06'0 0.0
2016-May-22 09:33N 35°36' E 140°06'0 0.0
2016-May-22 08:33N 35°36' E 140°06'0 0.0
2016-May-22 07:33N 35°36' E 140°06'7 6.7
2016-May-22 06:33N 35°31' E 140°00'4 4.1
2016-May-22 05:33N 35°28' E 139°58'1 1.0
2016-May-22 04:33N 35°29' E 139°57'0 0.0
2016-May-22 03:33N 35°29' E 139°57'0 0.0
2016-May-22 02:33N 35°29' E 139°57'0 0.0
2016-May-22 01:33N 35°29' E 139°57'0 0.0
2016-May-22 00:33N 35°29' E 139°57'1 1.2
2016-May-21 23:33N 35°28' E 139°58'6 6.0
2016-May-21 22:32N 35°33' E 140°02'5 4.7
2016-May-21 21:33N 35°36' E 140°06'0 0.0
2016-May-21 20:33N 35°36' E 140°06'0 0.0
2016-May-21 19:33N 35°36' E 140°06'0 0.0
2016-May-21 18:33N 35°36' E 140°06'0 0.0
2016-May-21 17:33N 35°36' E 140°06'0 0.0
2016-May-21 16:33N 35°36' E 140°06'0 0.0
2016-May-21 15:33N 35°36' E 140°06'0 0.0
2016-May-21 14:33N 35°36' E 140°06'0 0.0
2016-May-21 13:33N 35°36' E 140°06'0 0.0
2016-May-21 12:33N 35°36' E 140°06'0 0.0
2016-May-21 11:33N 35°36' E 140°06'0 0.0
2016-May-21 10:33N 35°36' E 140°06'0 0.0
2016-May-21 09:34N 35°36' E 140°06'4 4.1
2016-May-21 08:33N 35°33' E 140°03'2 2.1
2016-May-21 07:33N 35°31' E 140°02'1 0.6
2016-May-21 06:33N 35°31' E 140°02'0 0.0
2016-May-21 05:33N 35°31' E 140°02'2 2.1
2016-May-21 04:34N 35°29' E 140°00'4 4.4
2016-May-21 03:33N 35°33' E 140°03'4 4.2
2016-May-21 02:33N 35°36' E 140°06'0 0.0
2016-May-21 01:33N 35°36' E 140°06'0 0.0
2016-May-21 00:33N 35°36' E 140°06'0 0.0
2016-May-20 23:33N 35°36' E 140°06'0 0.0
2016-May-20 22:33N 35°36' E 140°06'0 0.0
2016-May-20 21:33N 35°36' E 140°06'0 0.0
2016-May-20 20:33N 35°36' E 140°06'0 0.0
2016-May-20 19:33N 35°36' E 140°06'0 0.0
2016-May-20 18:33N 35°36' E 140°06'0 0.0
2016-May-20 17:33N 35°36' E 140°06'0 0.0
2016-May-20 16:33N 35°36' E 140°06'0 0.0
2016-May-20 15:33N 35°36' E 140°06'0 0.0
2016-May-20 14:33N 35°36' E 140°06'0 0.0
2016-May-20 13:33N 35°36' E 140°06'0 0.0
2016-May-20 12:33N 35°36' E 140°06'0 0.0
2016-May-20 11:33N 35°36' E 140°06'0 0.0
2016-May-20 10:33N 35°36' E 140°06'0 0.0
2016-May-20 09:33N 35°36' E 140°06'0 0.0
2016-May-20 08:33N 35°36' E 140°06'0 0.0
2016-May-20 07:33N 35°36' E 140°06'1 1.0
2016-May-20 06:33N 35°36' E 140°05'2 1.5
2016-May-20 05:33N 35°36' E 140°07'0 0.0
2016-May-20 04:33N 35°36' E 140°07'0 0.0
2016-May-20 03:33N 35°36' E 140°07'4 4.4
2016-May-20 02:33N 35°33' E 140°03'2 1.8
2016-May-20 01:33N 35°31' E 140°02'2 1.5
2016-May-20 00:32N 35°31' E 140°00'1 0.6
2016-May-19 23:33N 35°31' E 140°01'6 6.5
2016-May-19 22:34N 35°36' E 140°06'0 0.0
2016-May-19 21:33N 35°36' E 140°06'0 0.0
2016-May-19 20:33N 35°36' E 140°06'0 0.0
2016-May-19 19:33N 35°36' E 140°06'0 0.0
2016-May-19 18:34N 35°36' E 140°06'0 0.0
2016-May-19 17:33N 35°36' E 140°06'0 0.0
2016-May-19 16:33N 35°36' E 140°06'0 0.0
2016-May-19 15:33N 35°36' E 140°06'0 0.0
2016-May-19 14:34N 35°36' E 140°06'0 0.0
2016-May-19 13:33N 35°36' E 140°06'0 0.0
2016-May-19 12:33N 35°36' E 140°06'0 0.0
2016-May-19 11:33N 35°36' E 140°06'0 0.0
2016-May-19 10:33N 35°36' E 140°06'0 0.0
2016-May-19 09:33N 35°36' E 140°06'0 0.0
2016-May-19 08:33N 35°36' E 140°06'0 0.0
2016-May-19 07:33N 35°36' E 140°06'1 0.8
2016-May-19 06:33N 35°36' E 140°05'1 1.5
2016-May-19 05:33N 35°35' E 140°04'0 0.0
2016-May-19 04:33N 35°35' E 140°04'7 7.5
2016-May-19 03:33N 35°29' E 139°59'1 0.9
2016-May-19 02:33N 35°28' E 139°58'0 0.5
2016-May-19 01:33N 35°29' E 139°58'1 0.7
2016-May-19 00:33N 35°29' E 139°57'9 9.0
2016-May-18 23:33N 35°35' E 140°05'0 0.2
2016-May-18 22:33N 35°36' E 140°06'1 0.9
2016-May-18 21:33N 35°35' E 140°05'0 0.0
2016-May-18 20:32N 35°35' E 140°05'2 1.8
2016-May-18 19:33N 35°36' E 140°06'0 0.0
2016-May-18 18:33N 35°36' E 140°06'0 0.0
2016-May-18 17:33N 35°36' E 140°06'0 0.0
2016-May-18 16:33N 35°36' E 140°06'0 0.0
2016-May-18 15:33N 35°36' E 140°06'0 0.0
2016-May-18 14:33N 35°36' E 140°06'0 0.0
2016-May-18 13:33N 35°36' E 140°06'0 0.0
2016-May-18 12:33N 35°36' E 140°06'0 0.0
2016-May-18 11:33N 35°36' E 140°06'0 0.0
2016-May-18 10:33N 35°36' E 140°06'0 0.0
2016-May-18 09:33N 35°36' E 140°06'5 4.6
2016-May-18 08:33N 35°33' E 140°02'7 6.8
2016-May-18 07:33N 35°27' E 139°58'1 1.3
2016-May-18 06:33N 35°28' E 139°57'0 0.0
2016-May-18 05:33N 35°28' E 139°57'1 0.6
2016-May-18 04:33N 35°29' E 139°57'4 4.5
2016-May-18 03:33N 35°31' E 140°02'0 0.3
2016-May-18 02:32N 35°31' E 140°02'6 5.9
2016-May-18 01:33N 35°36' E 140°06'0 0.0
2016-May-18 00:33N 35°36' E 140°06'0 0.0
2016-May-17 23:33N 35°36' E 140°06'0 0.0
2016-May-17 22:33N 35°36' E 140°06'  

Dump ship's entire track history